createdAt,value
2018-04-24T00:02:04.873Z,6.33
2018-04-24T00:04:37.009Z,4.80
2018-04-24T00:07:08.357Z,5.13
2018-04-24T00:09:41.242Z,5.30
2018-04-24T00:12:14.096Z,4.43
2018-04-24T00:14:45.500Z,6.17
2018-04-24T00:17:17.646Z,5.63
2018-04-24T00:19:50.485Z,3.00
2018-04-24T00:22:22.705Z,6.90
2018-04-24T00:24:54.042Z,4.00
2018-04-24T00:27:25.502Z,2.83
2018-04-24T00:29:58.424Z,4.27
2018-04-24T00:32:30.538Z,4.67
2018-04-24T00:35:02.824Z,3.43
2018-04-24T00:37:34.216Z,3.80
2018-04-24T00:40:06.335Z,1.70
2018-04-24T00:42:38.272Z,2.20
2018-04-24T00:45:09.625Z,3.80
2018-04-24T00:47:40.949Z,3.37
2018-04-24T00:50:13.197Z,6.07
2018-04-24T00:52:44.557Z,3.00
2018-04-24T00:55:16.699Z,3.03
2018-04-24T00:57:48.077Z,5.20
2018-04-24T01:00:19.411Z,5.10
2018-04-24T01:02:51.033Z,4.83
2018-04-24T01:05:22.394Z,4.00
2018-04-24T01:07:53.757Z,2.37
2018-04-24T01:10:25.125Z,4.90
2018-04-24T01:12:57.218Z,4.43
2018-04-24T01:15:28.597Z,3.67
2018-04-24T01:18:00.017Z,2.67
2018-04-24T01:20:32.137Z,3.90
2018-04-24T01:23:03.658Z,3.23
2018-04-24T01:25:35.031Z,3.10
2018-04-24T01:28:06.687Z,1.53
2018-04-24T01:30:38.322Z,1.80
2018-04-24T01:33:09.701Z,3.27
2018-04-24T01:35:41.114Z,4.23
2018-04-24T01:38:12.471Z,3.50
2018-04-24T01:40:43.815Z,1.13
2018-04-24T01:43:15.211Z,2.73
2018-04-24T01:45:46.533Z,2.43
2018-04-24T01:48:17.894Z,2.50
2018-04-24T01:50:49.338Z,4.37
2018-04-24T01:53:20.737Z,1.57
2018-04-24T01:55:52.830Z,2.50
2018-04-24T01:58:24.203Z,3.27
2018-04-24T02:00:55.592Z,2.70
2018-04-24T02:03:26.983Z,1.60
2018-04-24T02:05:58.343Z,4.53
2018-04-24T02:08:29.678Z,1.83
2018-04-24T02:11:01.033Z,2.77
2018-04-24T02:13:32.321Z,2.63
2018-04-24T02:16:04.493Z,3.23
2018-04-24T02:18:36.667Z,2.97
2018-04-24T02:21:07.646Z,2.17
2018-04-24T02:23:39.805Z,2.30
2018-04-24T02:26:11.911Z,5.60
2018-04-24T02:28:43.279Z,2.87
2018-04-24T02:31:14.594Z,3.30
2018-04-24T02:33:45.948Z,1.60
2018-04-24T02:36:17.342Z,2.30
2018-04-24T02:38:48.702Z,3.00
2018-04-24T02:41:20.029Z,1.97
2018-04-24T02:43:51.400Z,4.00
2018-04-24T02:46:22.567Z,2.00
2018-04-24T02:48:53.861Z,2.87
2018-04-24T02:51:25.046Z,3.03
2018-04-24T02:53:56.409Z,1.60
2018-04-24T02:56:28.538Z,2.80
2018-04-24T02:59:00.477Z,3.80
2018-04-24T03:01:33.799Z,2.63
2018-04-24T03:04:05.028Z,2.30
2018-04-24T03:06:36.767Z,3.67
2018-04-24T03:09:07.747Z,3.93
2018-04-24T03:11:39.693Z,3.23
2018-04-24T03:14:11.670Z,2.83
2018-04-24T03:16:42.953Z,1.53
2018-04-24T03:19:15.082Z,2.77
2018-04-24T03:21:46.730Z,2.83
2018-04-24T03:24:17.916Z,2.80
2018-04-24T03:26:49.262Z,4.90
2018-04-24T03:29:20.491Z,2.20
2018-04-24T03:31:51.498Z,3.57
2018-04-24T03:34:23.059Z,3.47
2018-04-24T03:36:54.385Z,3.30
2018-04-24T03:39:26.624Z,3.47
2018-04-24T03:41:57.896Z,3.27
2018-04-24T03:44:30.013Z,3.97
2018-04-24T03:47:01.432Z,2.10
2018-04-24T03:49:32.776Z,2.80
2018-04-24T03:52:04.129Z,3.70
2018-04-24T03:54:35.478Z,3.13
2018-04-24T03:57:06.819Z,5.70
2018-04-24T03:59:39.090Z,2.93
2018-04-24T04:02:10.578Z,4.20
2018-04-24T04:04:41.941Z,2.30
2018-04-24T04:07:14.090Z,5.07
2018-04-24T04:09:45.479Z,4.03
2018-04-24T04:12:16.802Z,2.50
2018-04-24T04:14:48.264Z,2.53
2018-04-24T04:17:36.272Z,4.27
2018-04-24T04:20:25.279Z,3.73
2018-04-24T04:23:13.269Z,3.33
2018-04-24T04:25:44.715Z,2.43
2018-04-24T04:28:16.090Z,3.23
2018-04-24T04:30:54.030Z,3.47
2018-04-24T04:33:25.433Z,3.47
2018-04-24T04:35:56.944Z,3.60
2018-04-24T04:38:28.740Z,3.97
2018-04-24T04:41:00.624Z,3.07
2018-04-24T04:43:32.019Z,3.97
2018-04-24T04:46:04.281Z,3.83
2018-04-24T04:48:35.962Z,3.90
2018-04-24T04:51:07.414Z,3.77
2018-04-24T04:53:39.514Z,5.17
2018-04-24T04:56:11.053Z,4.17
2018-04-24T04:58:42.961Z,5.00
2018-04-24T05:01:14.526Z,21.93
2018-04-24T05:03:47.458Z,3.43
2018-04-24T05:06:18.807Z,6.13
2018-04-24T05:08:50.261Z,6.33
2018-04-24T05:11:21.613Z,4.77
2018-04-24T05:13:53.026Z,4.30
2018-04-24T05:16:25.158Z,4.47
2018-04-24T05:18:57.286Z,3.37
2018-04-24T05:21:28.657Z,4.33
2018-04-24T05:24:00.137Z,4.87
2018-04-24T05:26:31.570Z,4.03
2018-04-24T05:29:03.066Z,4.07
2018-04-24T05:31:34.131Z,6.17
2018-04-24T05:34:05.492Z,2.87
2018-04-24T05:36:37.162Z,3.13
2018-04-24T05:39:08.510Z,4.10
2018-04-24T05:41:39.850Z,5.93
2018-04-24T05:44:11.185Z,3.37
2018-04-24T05:46:43.327Z,2.17
2018-04-24T05:49:14.838Z,3.43
2018-04-24T05:51:46.198Z,5.13
2018-04-24T05:54:17.578Z,5.67
2018-04-24T05:56:48.925Z,4.77
2018-04-24T05:59:21.098Z,3.33
2018-04-24T06:01:53.193Z,2.30
2018-04-24T06:04:24.938Z,3.73
2018-04-24T06:06:56.825Z,4.13
2018-04-24T06:09:29.106Z,3.70
2018-04-24T06:12:01.653Z,5.23
2018-04-24T06:14:32.979Z,4.83
2018-04-24T06:17:05.236Z,3.43
2018-04-24T06:19:36.671Z,4.23
2018-04-24T06:22:08.346Z,4.37
2018-04-24T06:24:39.698Z,2.90
2018-04-24T06:27:11.113Z,3.33
2018-04-24T06:29:43.502Z,4.13
2018-04-24T06:32:15.013Z,2.30
2018-04-24T06:34:47.139Z,4.83
2018-04-24T06:37:18.548Z,3.90
2018-04-24T06:39:50.625Z,3.47
2018-04-24T06:42:23.130Z,3.73
2018-04-24T06:44:55.386Z,4.17
2018-04-24T06:47:26.780Z,3.43
2018-04-24T06:49:59.621Z,3.80
2018-04-24T06:52:30.997Z,2.50
2018-04-24T06:55:02.487Z,2.90
2018-04-24T06:57:35.330Z,3.70
2018-04-24T07:00:06.720Z,3.17
2018-04-24T07:02:38.847Z,4.03
2018-04-24T07:05:10.260Z,2.63
2018-04-24T07:07:41.636Z,5.60
2018-04-24T07:10:13.225Z,6.93
2018-04-24T07:12:44.935Z,4.23
2018-04-24T07:15:17.498Z,2.77
2018-04-24T07:17:49.251Z,2.37
2018-04-24T07:20:20.636Z,6.37
2018-04-24T07:22:52.085Z,3.10
2018-04-24T07:25:23.437Z,4.50
2018-04-24T07:27:54.853Z,4.33
2018-04-24T07:30:26.995Z,4.03
2018-04-24T07:32:58.682Z,3.50
2018-04-24T07:35:30.995Z,3.83
2018-04-24T07:38:02.366Z,5.30
2018-04-24T07:40:33.735Z,2.80
2018-04-24T07:43:05.265Z,2.40
2018-04-24T07:45:36.601Z,4.93
2018-04-24T07:48:07.987Z,3.53
2018-04-24T07:50:40.841Z,3.60
2018-04-24T07:53:12.274Z,4.77
2018-04-24T07:55:44.490Z,3.80
2018-04-24T07:58:16.015Z,2.53
2018-04-24T08:00:47.375Z,13.47
2018-04-24T08:03:18.707Z,3.67
2018-04-24T08:05:50.077Z,4.13
2018-04-24T08:08:23.111Z,6.13
2018-04-24T08:10:55.187Z,5.23
2018-04-24T08:13:26.608Z,4.20
2018-04-24T08:15:58.593Z,5.00
2018-04-24T08:18:29.910Z,5.47
2018-04-24T08:21:01.310Z,4.33
2018-04-24T08:23:32.830Z,3.77
2018-04-24T08:26:04.979Z,5.07
2018-04-24T08:28:36.304Z,4.10
2018-04-24T08:31:07.459Z,3.80
2018-04-24T08:33:39.836Z,3.87
2018-04-24T08:36:11.402Z,5.03
2018-04-24T08:38:43.047Z,8.27
2018-04-24T08:41:14.388Z,4.73
2018-04-24T08:43:45.778Z,3.73
2018-04-24T08:46:17.110Z,4.63
2018-04-24T08:48:48.946Z,6.80
2018-04-24T08:51:20.372Z,7.27
2018-04-24T08:53:51.791Z,4.53
2018-04-24T08:56:23.246Z,3.93
2018-04-24T08:58:54.827Z,5.27
2018-04-24T09:01:26.329Z,4.43
2018-04-24T09:03:57.737Z,5.20
2018-04-24T09:06:29.157Z,5.73
2018-04-24T09:09:00.790Z,5.87
2018-04-24T09:11:32.254Z,5.90
2018-04-24T09:14:04.551Z,6.37
2018-04-24T09:16:36.519Z,7.37
2018-04-24T09:19:07.882Z,4.30
2018-04-24T09:21:39.028Z,5.37
2018-04-24T09:24:10.392Z,6.23
2018-04-24T09:26:41.756Z,5.43
2018-04-24T09:29:13.227Z,4.60
2018-04-24T09:31:44.576Z,4.93
2018-04-24T09:34:16.002Z,4.80
2018-04-24T09:36:47.580Z,4.70
2018-04-24T09:39:19.298Z,6.33
2018-04-24T09:41:50.639Z,4.17
2018-04-24T09:44:22.186Z,6.80
2018-04-24T09:46:53.548Z,5.23
2018-04-24T09:49:24.919Z,5.60
2018-04-24T09:51:56.534Z,6.53
2018-04-24T09:54:27.872Z,6.33
2018-04-24T09:56:59.302Z,3.70
2018-04-24T09:59:31.014Z,3.50
2018-04-24T10:02:03.284Z,4.30
2018-04-24T10:04:34.753Z,4.90
2018-04-24T10:07:06.490Z,4.33
2018-04-24T10:09:37.634Z,5.37
2018-04-24T10:12:08.447Z,4.97
2018-04-24T10:14:40.601Z,6.17
2018-04-24T10:17:11.955Z,4.90
2018-04-24T10:19:46.696Z,5.27
2018-04-24T10:22:18.465Z,5.80
2018-04-24T10:24:49.975Z,7.07
2018-04-24T10:27:21.391Z,6.17
2018-04-24T10:29:53.689Z,5.17
2018-04-24T10:32:24.365Z,7.60
2018-04-24T10:34:55.795Z,5.70
2018-04-24T10:37:27.147Z,4.67
2018-04-24T10:39:58.880Z,4.67
2018-04-24T10:42:31.074Z,4.73
2018-04-24T10:45:03.252Z,4.40
2018-04-24T10:47:34.987Z,4.33
2018-04-24T10:50:06.428Z,4.83
2018-04-24T10:52:38.064Z,5.30
2018-04-24T10:55:09.500Z,4.83
2018-04-24T10:57:41.582Z,6.57
2018-04-24T11:00:13.251Z,4.93
2018-04-24T11:02:45.790Z,9.23
2018-04-24T11:05:18.861Z,4.53
2018-04-24T11:07:51.067Z,8.03
2018-04-24T11:10:23.294Z,10.37
2018-04-24T11:12:55.447Z,6.30
2018-04-24T11:15:26.811Z,5.57
2018-04-24T11:17:58.736Z,4.80
2018-04-24T11:20:30.085Z,5.40
2018-04-24T11:23:01.632Z,5.60
2018-04-24T11:25:33.160Z,7.50
2018-04-24T11:28:05.369Z,7.40
2018-04-24T11:30:36.748Z,5.77
2018-04-24T11:33:08.094Z,6.63
2018-04-24T11:35:39.712Z,5.20
2018-04-24T11:38:11.067Z,5.30
2018-04-24T11:40:42.430Z,5.30
2018-04-24T11:43:13.895Z,6.33
2018-04-24T11:45:45.255Z,7.33
2018-04-24T11:48:16.665Z,6.77
2018-04-24T11:50:48.344Z,6.17
2018-04-24T11:53:19.784Z,7.20
2018-04-24T11:55:51.317Z,6.90
2018-04-24T11:58:22.727Z,7.00
2018-04-24T12:00:54.126Z,7.63
2018-04-24T12:03:25.647Z,11.13
2018-04-24T12:05:57.341Z,8.00
2018-04-24T12:08:28.798Z,8.40
2018-04-24T12:11:00.202Z,7.47
2018-04-24T12:13:36.395Z,9.03
2018-04-24T12:16:07.745Z,7.40
2018-04-24T12:18:39.123Z,6.80
2018-04-24T12:21:10.577Z,6.63
2018-04-24T12:23:41.942Z,8.47
2018-04-24T12:26:13.281Z,6.30
2018-04-24T12:28:44.674Z,7.13
2018-04-24T12:31:16.829Z,8.27
2018-04-24T12:33:48.480Z,7.43
2018-04-24T12:36:21.388Z,8.40
2018-04-24T12:38:52.850Z,8.03
2018-04-24T12:41:24.436Z,7.70
2018-04-24T12:43:55.843Z,12.87
2018-04-24T12:46:28.286Z,9.87
2018-04-24T12:48:59.658Z,7.90
2018-04-24T12:51:31.045Z,7.97
2018-04-24T12:54:02.416Z,8.17
2018-04-24T12:56:33.824Z,8.57
2018-04-24T12:59:06.065Z,7.97
2018-04-24T13:01:37.909Z,9.97
2018-04-24T13:04:09.288Z,18.70
2018-04-24T13:06:40.997Z,7.57
2018-04-24T13:09:12.384Z,7.73
2018-04-24T13:11:44.060Z,7.83
2018-04-24T13:14:16.216Z,8.47
2018-04-24T13:16:47.808Z,8.57
2018-04-24T13:19:20.000Z,9.23
2018-04-24T13:21:51.433Z,8.57
2018-04-24T13:24:23.619Z,10.00
2018-04-24T13:26:55.003Z,8.07
2018-04-24T13:29:26.371Z,8.50
2018-04-24T13:31:58.571Z,10.63
2018-04-24T13:34:29.971Z,10.17
2018-04-24T13:37:01.175Z,10.07
2018-04-24T13:39:32.790Z,12.53
2018-04-24T13:42:05.003Z,9.50
2018-04-24T13:44:37.507Z,14.30
2018-04-24T13:47:08.999Z,9.60
2018-04-24T13:49:40.590Z,9.23
2018-04-24T13:52:12.137Z,10.60
2018-04-24T13:54:43.489Z,9.40
2018-04-24T13:57:14.866Z,8.63
2018-04-24T13:59:46.254Z,9.83
2018-04-24T14:02:18.437Z,10.60
2018-04-24T14:04:49.926Z,11.23
2018-04-24T14:07:21.287Z,9.37
2018-04-24T14:09:52.663Z,10.20
2018-04-24T14:12:24.092Z,10.37
2018-04-24T14:14:55.611Z,9.23
2018-04-24T14:17:27.106Z,11.00
2018-04-24T14:26:47.878Z,9.57
2018-04-24T14:29:19.287Z,10.10
2018-04-24T14:31:50.624Z,10.27
2018-04-24T14:34:22.021Z,9.70
2018-04-24T14:36:53.690Z,9.13
2018-04-24T14:39:25.519Z,9.03
2018-04-24T14:41:58.161Z,11.47
2018-04-24T14:44:30.301Z,10.00
2018-04-24T14:47:01.659Z,9.93
2018-04-24T14:49:33.257Z,10.83
2018-04-24T14:52:04.652Z,9.47
2018-04-24T14:54:35.980Z,10.40
2018-04-24T14:57:07.674Z,11.03
2018-04-24T14:59:39.076Z,10.13
2018-04-24T15:02:10.588Z,11.07
2018-04-24T15:04:42.711Z,10.60
2018-04-24T15:07:14.191Z,9.87
2018-04-24T15:09:45.790Z,11.63
2018-04-24T15:12:17.906Z,9.97
2018-04-24T15:14:50.820Z,10.23
2018-04-24T15:17:22.993Z,12.03
2018-04-24T15:19:54.606Z,9.30
2018-04-24T15:22:26.854Z,9.50
2018-04-24T15:24:58.245Z,9.50
2018-04-24T15:27:29.574Z,10.27
2018-04-24T15:30:01.108Z,11.93
2018-04-24T15:32:33.585Z,11.13
2018-04-24T15:35:05.363Z,10.63
2018-04-24T15:37:36.850Z,10.37
2018-04-24T15:40:08.829Z,12.43
2018-04-24T15:42:40.240Z,12.37
2018-04-24T15:45:11.645Z,11.13
2018-04-24T15:47:43.021Z,10.47
2018-04-24T15:50:14.498Z,11.47
2018-04-24T15:52:46.234Z,11.50
2018-04-24T15:55:17.563Z,10.53
2018-04-24T15:57:49.018Z,9.90
2018-04-24T16:00:20.440Z,11.60
2018-04-24T16:02:52.647Z,10.60
2018-04-24T16:05:25.081Z,11.20
2018-04-24T16:07:57.316Z,15.10
2018-04-24T16:10:28.688Z,9.80
2018-04-24T16:13:00.134Z,11.93
2018-04-24T16:15:31.969Z,12.07
2018-04-24T16:18:03.379Z,10.30
2018-04-24T16:20:35.782Z,11.57
2018-04-24T16:23:07.204Z,13.37
2018-04-24T16:25:38.904Z,11.23
2018-04-24T16:28:10.484Z,10.97
2018-04-24T16:30:42.164Z,14.47
2018-04-24T16:33:14.251Z,9.40
2018-04-24T16:35:45.642Z,11.57
2018-04-24T16:38:17.206Z,11.00
2018-04-24T16:40:48.579Z,8.87
2018-04-24T16:43:21.442Z,10.97
2018-04-24T16:45:52.801Z,10.00
2018-04-24T16:48:24.175Z,12.70
2018-04-24T16:50:56.262Z,9.37
2018-04-24T16:53:28.391Z,13.80
2018-04-24T16:56:02.693Z,10.80
2018-04-24T16:58:35.005Z,10.57
2018-04-24T17:01:06.430Z,10.90
2018-04-24T17:03:39.345Z,11.20
2018-04-24T17:06:11.513Z,10.93
2018-04-24T17:08:43.196Z,8.63
2018-04-24T17:11:15.603Z,9.97
2018-04-24T17:13:48.075Z,10.10
2018-04-24T17:16:19.435Z,10.20
2018-04-24T17:18:50.853Z,9.03
2018-04-24T17:21:22.192Z,9.87
2018-04-24T17:23:53.620Z,11.07
2018-04-24T17:26:25.770Z,10.90
2018-04-24T17:28:57.198Z,9.77
2018-04-24T17:31:28.645Z,9.50
2018-04-24T17:34:00.159Z,9.30
2018-04-24T17:36:32.561Z,10.17
2018-04-24T17:39:03.770Z,9.63
2018-04-24T17:41:35.861Z,9.23
2018-04-24T17:44:07.472Z,9.50
2018-04-24T17:46:39.569Z,8.97
2018-04-24T17:49:11.062Z,9.83
2018-04-24T17:51:45.374Z,10.43
2018-04-24T17:54:18.334Z,10.20
2018-04-24T17:56:49.776Z,8.53
2018-04-24T17:59:21.882Z,8.97
2018-04-24T18:01:54.106Z,9.03
2018-04-24T18:04:25.456Z,8.70
2018-04-24T18:06:57.362Z,9.13
2018-04-24T18:09:28.729Z,8.70
2018-04-24T18:12:00.089Z,8.47
2018-04-24T18:14:31.638Z,8.53
2018-04-24T18:17:03.041Z,7.70
2018-04-24T18:19:34.510Z,7.97
2018-04-24T18:22:05.858Z,7.20
2018-04-24T18:24:37.378Z,7.40
2018-04-24T18:27:08.777Z,7.67
2018-04-24T18:29:40.131Z,8.97
2018-04-24T18:32:12.382Z,9.23
2018-04-24T18:34:43.771Z,6.47
2018-04-24T18:37:15.363Z,7.90
2018-04-24T18:39:47.503Z,6.60
2018-04-24T18:42:18.835Z,6.80
2018-04-24T18:44:50.222Z,8.33
2018-04-24T18:47:22.612Z,7.77
2018-04-24T18:49:54.259Z,7.20
2018-04-24T18:52:25.716Z,6.33
2018-04-24T18:54:56.936Z,8.83
2018-04-24T18:57:29.043Z,7.27
2018-04-24T19:00:00.416Z,10.00
2018-04-24T19:02:31.780Z,9.40
2018-04-24T19:05:03.150Z,10.07
2018-04-24T19:07:34.550Z,6.83
2018-04-24T19:10:05.211Z,12.77
2018-04-24T19:12:37.466Z,9.60
2018-04-24T19:15:08.931Z,10.40
2018-04-24T19:17:39.995Z,9.63
2018-04-24T19:20:11.395Z,8.87
2018-04-24T19:22:42.806Z,12.43
2018-04-24T19:25:19.624Z,8.97
2018-04-24T19:27:51.894Z,8.80
2018-04-24T19:30:23.222Z,8.00
2018-04-24T19:32:54.660Z,8.57
2018-04-24T19:35:26.350Z,8.37
2018-04-24T19:37:57.807Z,7.43
2018-04-24T19:40:34.584Z,9.07
2018-04-24T19:43:06.068Z,7.57
2018-04-24T19:45:37.564Z,8.10
2018-04-24T19:48:08.736Z,7.93
2018-04-24T19:50:40.206Z,9.23
2018-04-24T19:53:11.595Z,8.03
2018-04-24T19:55:43.262Z,8.17
2018-04-24T19:58:15.713Z,9.40
2018-04-24T20:00:47.072Z,8.63
2018-04-24T20:03:19.765Z,8.90
2018-04-24T20:05:50.915Z,9.63
2018-04-24T20:08:23.032Z,8.13
2018-04-24T20:10:54.421Z,8.03
2018-04-24T20:13:26.578Z,8.37
2018-04-24T20:15:58.019Z,10.17
2018-04-24T20:18:30.167Z,10.37
2018-04-24T20:21:01.755Z,8.60
2018-04-24T20:23:33.423Z,9.70
2018-04-24T20:26:05.554Z,8.23
2018-04-24T20:28:36.960Z,13.23
2018-04-24T20:31:08.126Z,9.03
2018-04-24T20:33:39.289Z,8.83
2018-04-24T20:36:10.700Z,8.63
2018-04-24T20:38:42.103Z,9.47
2018-04-24T20:41:13.874Z,7.60
2018-04-24T20:43:46.019Z,9.33
2018-04-24T20:46:17.567Z,8.37
2018-04-24T20:48:49.994Z,8.83
2018-04-24T20:51:22.106Z,7.93
2018-04-24T20:53:53.690Z,8.10
2018-04-24T20:56:25.406Z,8.87
2018-04-24T20:58:56.595Z,8.13
2018-04-24T21:01:28.014Z,8.63
2018-04-24T21:03:59.383Z,7.70
2018-04-24T21:06:30.795Z,7.83
2018-04-24T21:09:02.175Z,8.37
2018-04-24T21:11:33.534Z,8.53
2018-04-24T21:14:04.900Z,8.43
2018-04-24T21:16:36.086Z,8.77
2018-04-24T21:19:07.467Z,8.47
2018-04-24T21:21:38.820Z,10.67
2018-04-24T21:24:10.175Z,7.77
2018-04-24T21:26:41.875Z,8.27
2018-04-24T21:29:13.295Z,7.43
2018-04-24T21:31:44.955Z,8.67
2018-04-24T21:34:16.270Z,7.70
2018-04-24T21:36:47.663Z,9.73
2018-04-24T21:39:19.432Z,7.27
2018-04-24T21:41:50.788Z,7.50
2018-04-24T21:44:22.135Z,8.13
2018-04-24T21:46:53.605Z,8.40
2018-04-24T21:49:25.713Z,8.93
2018-04-24T21:51:57.136Z,9.60
2018-04-24T21:54:28.770Z,8.03
2018-04-24T21:57:01.723Z,8.70
2018-04-24T21:59:33.251Z,9.17
2018-04-24T22:02:04.589Z,7.97
2018-04-24T22:04:35.938Z,7.33
2018-04-24T22:07:08.542Z,7.90
2018-04-24T22:09:39.939Z,8.53
2018-04-24T22:12:12.078Z,7.63
2018-04-24T22:14:43.434Z,7.67
2018-04-24T22:17:15.022Z,7.07
2018-04-24T22:19:47.177Z,7.30
2018-04-24T22:22:19.299Z,7.87
2018-04-24T22:24:50.649Z,9.10
2018-04-24T22:27:22.806Z,9.90
2018-04-24T22:29:55.094Z,9.20
2018-04-24T22:32:26.205Z,9.57
2018-04-24T22:34:57.439Z,8.13
2018-04-24T22:37:28.646Z,8.03
2018-04-24T22:40:00.291Z,10.73
2018-04-24T22:42:31.633Z,7.90
2018-04-24T22:45:04.504Z,7.50
2018-04-24T22:47:35.851Z,7.90
2018-04-24T22:50:07.290Z,10.37
2018-04-24T22:52:39.742Z,10.13
2018-04-24T22:55:11.181Z,8.63
2018-04-24T22:57:42.339Z,9.47
2018-04-24T23:00:13.425Z,13.37
2018-04-24T23:02:44.489Z,10.27
2018-04-24T23:05:15.833Z,9.13
2018-04-24T23:07:47.223Z,9.03
2018-04-24T23:10:36.790Z,9.33
2018-04-24T23:13:30.675Z,9.00
2018-04-24T23:16:24.633Z,10.70
2018-04-24T23:19:18.426Z,9.50
2018-04-24T23:21:54.054Z,10.40
2018-04-24T23:24:25.387Z,12.47
2018-04-24T23:26:56.425Z,10.63
2018-04-24T23:29:27.754Z,11.37
2018-04-24T23:31:59.106Z,8.70
2018-04-24T23:34:30.471Z,9.10
2018-04-24T23:37:01.815Z,9.77
2018-04-24T23:39:33.332Z,9.20
2018-04-24T23:42:05.531Z,10.93
2018-04-24T23:44:36.916Z,10.07
2018-04-24T23:47:09.067Z,8.67
2018-04-24T23:49:40.418Z,9.73
2018-04-24T23:52:11.779Z,11.03
2018-04-24T23:54:43.168Z,10.20
2018-04-24T23:57:14.193Z,11.33
2018-04-24T23:59:47.034Z,11.00
